Time;durP1;ratioP1;P1;durP2;ratioP2;P2;SDS_P1;SDS_P2;PMS_P1;PMS_P2;Temp;Humidity;BMP_temperature;BMP_pressure;BME280_temperature;BME280_humidity;BME280_pressure;Samples;Min_cycle;Max_cycle;Signal;HPM_P1;HPM_P2
2023/07/15 00:00:50;;;;;;;2.50;1.58;;;24.40;81.80;;;;;;4167286;28;20044;-60
2023/07/15 00:02:51;;;;;;;2.63;1.65;;;24.30;81.60;;;;;;4153985;28;20084;-59
2023/07/15 00:04:51;;;;;;;2.35;1.42;;;24.30;81.60;;;;;;4169196;28;20026;-59
2023/07/15 00:06:52;;;;;;;7.05;1.65;;;24.30;81.30;;;;;;4166411;28;20033;-59
2023/07/15 00:08:54;;;;;;;4.20;1.77;;;24.30;82.10;;;;;;4168431;28;20043;-59
2023/07/15 00:10:55;;;;;;;3.72;1.73;;;24.30;80.80;;;;;;4172083;28;20102;-59
2023/07/15 00:12:58;;;;;;;2.70;1.70;;;24.20;80.70;;;;;;4176246;28;20045;-59
2023/07/15 00:14:58;;;;;;;;;;;24.20;80.90;;;;;;4168898;28;20030;-59
2023/07/15 00:16:59;;;;;;;3.22;1.33;;;24.20;82.40;;;;;;4162185;28;19909;-60
2023/07/15 00:19:00;;;;;;;2.38;1.60;;;24.20;81.50;;;;;;4168168;28;20041;-60
2023/07/15 00:21:11;;;;;;;3.42;1.70;;;24.20;82.10;;;;;;4165794;28;20037;-60
2023/07/15 00:23:24;;;;;;;5.03;2.05;;;24.20;80.70;;;;;;4159941;28;20328;-59
2023/07/15 00:25:25;;;;;;;4.03;2.00;;;24.20;81.60;;;;;;4172387;28;20506;-59
2023/07/15 00:27:25;;;;;;;3.55;1.73;;;24.20;81.30;;;;;;4177615;28;20104;-59
2023/07/15 00:29:27;;;;;;;2.97;1.92;;;24.10;81.20;;;;;;4174088;28;20689;-59
2023/07/15 00:31:28;;;;;;;2.65;1.73;;;24.10;81.00;;;;;;4172726;28;20068;-59
2023/07/15 00:33:28;;;;;;;3.55;1.70;;;24.10;83.20;;;;;;4177589;28;20041;-59
2023/07/15 00:35:29;;;;;;;4.43;1.55;;;24.10;81.60;;;;;;4157222;28;20042;-59
2023/07/15 00:37:32;;;;;;;3.88;2.05;;;24.10;82.00;;;;;;4176619;28;20035;-60
2023/07/15 00:39:33;;;;;;;3.67;1.80;;;24.10;81.70;;;;;;4175810;28;20559;-59
2023/07/15 00:41:35;;;;;;;2.97;1.67;;;24.00;82.90;;;;;;4175274;28;20033;-59
2023/07/15 00:43:51;;;;;;;2.88;1.60;;;24.00;81.80;;;;;;4177209;28;20044;-59
2023/07/15 00:46:22;;;;;;;5.95;1.88;;;24.00;82.50;;;;;;4175897;28;20033;-59
2023/07/15 00:48:27;;;;;;;2.83;1.73;;;24.00;84.40;;;;;;4158201;28;20118;-60
2023/07/15 00:50:27;;;;;;;2.80;1.70;;;24.00;83.10;;;;;;4152744;28;20532;-59
2023/07/15 00:52:28;;;;;;;3.42;1.60;;;23.90;83.30;;;;;;4176643;28;20056;-59
2023/07/15 00:54:33;;;;;;;3.10;1.65;;;24.00;82.10;;;;;;4173289;28;20468;-59
2023/07/15 00:56:35;;;;;;;2.08;1.50;;;24.00;84.50;;;;;;4175033;28;20462;-60
2023/07/15 00:58:36;;;;;;;2.78;1.48;;;24.00;82.50;;;;;;4175073;28;20507;-59
2023/07/15 01:00:37;;;;;;;2.80;1.55;;;24.00;83.90;;;;;;4169620;28;20033;-59
2023/07/15 01:02:38;;;;;;;4.18;1.60;;;24.00;82.90;;;;;;4177410;28;20029;-59
2023/07/15 01:04:39;;;;;;;2.88;1.45;;;24.00;83.00;;;;;;4177315;28;20086;-59
2023/07/15 01:06:41;;;;;;;2.08;1.52;;;24.00;84.00;;;;;;4176239;28;20053;-59
2023/07/15 01:08:42;;;;;;;3.60;1.60;;;24.00;82.50;;;;;;4174702;28;20037;-59
2023/07/15 01:10:43;;;;;;;2.92;1.48;;;24.00;82.90;;;;;;4172993;28;20043;-59
2023/07/15 01:12:43;;;;;;;2.58;1.55;;;24.00;82.40;;;;;;4161071;28;20053;-59
2023/07/15 01:14:44;;;;;;;3.10;1.67;;;24.00;84.70;;;;;;4160635;28;20030;-61
2023/07/15 01:16:47;;;;;;;1.92;1.23;;;24.00;83.50;;;;;;4159076;28;20043;-60
2023/07/15 01:18:48;;;;;;;2.47;1.42;;;24.00;83.60;;;;;;4160634;28;20532;-59
2023/07/15 01:20:50;;;;;;;7.28;1.65;;;24.00;83.40;;;;;;4172347;28;20029;-59
2023/07/15 01:22:51;;;;;;;3.42;1.83;;;24.00;84.70;;;;;;4175115;28;20056;-60
2023/07/15 01:24:52;;;;;;;2.15;1.60;;;24.00;84.30;;;;;;4157729;28;20034;-59
2023/07/15 01:27:01;;;;;;;2.55;1.58;;;24.00;82.90;;;;;;4160204;28;20045;-60
2023/07/15 01:29:03;;;;;;;1.75;1.33;;;24.00;83.60;;;;;;4158063;28;20445;-60
2023/07/15 01:31:04;;;;;;;2.00;1.58;;;24.00;85.10;;;;;;4169532;28;20484;-59
2023/07/15 01:33:05;;;;;;;3.13;1.73;;;24.00;84.20;;;;;;4176971;28;20033;-60
2023/07/15 01:35:07;;;;;;;2.08;1.63;;;23.90;83.30;;;;;;4176841;28;20033;-61
2023/07/15 01:37:08;;;;;;;1.58;1.25;;;23.90;85.00;;;;;;4176673;28;20037;-59
2023/07/15 01:39:09;;;;;;;1.55;1.13;;;24.00;84.50;;;;;;4175459;28;20025;-59
2023/07/15 01:41:10;;;;;;;3.13;1.77;;;23.90;83.60;;;;;;4173809;28;20116;-59
2023/07/15 01:43:10;;;;;;;3.72;1.73;;;23.90;84.60;;;;;;4176583;28;20124;-59
2023/07/15 01:45:11;;;;;;;2.30;1.70;;;23.90;85.60;;;;;;4174964;28;20025;-60
2023/07/15 01:47:12;;;;;;;1.92;1.50;;;23.90;84.20;;;;;;4177006;28;20541;-59
2023/07/15 01:49:13;;;;;;;4.30;1.52;;;23.90;85.30;;;;;;4174422;28;20091;-59
2023/07/15 01:51:13;;;;;;;2.92;1.50;;;23.90;85.30;;;;;;4171599;28;20104;-59
2023/07/15 01:53:14;;;;;;;4.50;1.70;;;23.80;85.10;;;;;;4176126;28;20021;-59
2023/07/15 01:55:15;;;;;;;2.83;1.65;;;23.80;84.10;;;;;;4175679;28;20116;-60
2023/07/15 01:57:16;;;;;;;3.95;1.50;;;23.80;84.30;;;;;;4174602;28;20037;-59
2023/07/15 01:59:17;;;;;;;7.82;1.80;;;23.80;85.90;;;;;;4174608;28;20040;-59
2023/07/15 02:01:18;;;;;;;4.78;1.55;;;23.80;84.00;;;;;;4171243;28;20591;-60
2023/07/15 02:03:19;;;;;;;2.67;1.55;;;23.70;84.70;;;;;;4176570;28;20126;-59
2023/07/15 02:05:20;;;;;;;3.00;1.77;;;23.70;84.80;;;;;;4174768;28;20041;-59
2023/07/15 02:07:20;;;;;;;2.50;1.70;;;23.70;86.30;;;;;;4169640;28;20036;-59
2023/07/15 02:09:21;;;;;;;3.20;1.65;;;23.60;85.90;;;;;;4174457;28;20045;-59
2023/07/15 02:11:21;;;;;;;3.58;1.60;;;23.60;86.60;;;;;;4171592;28;20088;-59
2023/07/15 02:13:22;;;;;;;7.38;1.60;;;23.60;86.50;;;;;;4176600;28;20029;-59
2023/07/15 02:15:22;;;;;;;4.35;1.80;;;23.60;85.60;;;;;;4174454;28;20408;-60
2023/07/15 02:17:23;;;;;;;3.63;1.65;;;23.50;84.90;;;;;;4176978;28;20035;-59
2023/07/15 02:19:23;;;;;;;2.67;1.73;;;23.60;85.90;;;;;;4174923;28;20033;-59
2023/07/15 02:21:25;;;;;;;3.33;1.95;;;23.50;87.70;;;;;;4169102;28;20029;-59
2023/07/15 02:23:25;;;;;;;2.72;1.38;;;23.50;85.50;;;;;;4166214;28;20043;-59
2023/07/15 02:25:26;;;;;;;2.72;1.48;;;23.50;87.30;;;;;;4162058;28;20108;-59
2023/07/15 02:27:26;;;;;;;2.22;1.58;;;23.50;85.50;;;;;;4160784;28;20040;-59
2023/07/15 02:29:27;;;;;;;2.85;1.50;;;23.40;86.60;;;;;;4178117;28;20033;-59
2023/07/15 02:31:27;;;;;;;2.45;1.60;;;23.50;86.50;;;;;;4175865;28;20182;-59
2023/07/15 02:33:28;;;;;;;2.95;1.50;;;23.40;86.80;;;;;;4179419;28;20037;-59
2023/07/15 02:35:29;;;;;;;4.25;1.95;;;23.40;86.90;;;;;;4178481;28;20041;-59
2023/07/15 02:37:29;;;;;;;2.58;1.40;;;23.40;86.70;;;;;;4179606;28;20552;-59
2023/07/15 02:39:33;;;;;;;3.10;1.50;;;23.40;86.80;;;;;;4176664;28;20036;-61
2023/07/15 02:41:33;;;;;;;2.65;1.50;;;23.40;86.70;;;;;;4174436;28;20061;-59
2023/07/15 02:43:35;;;;;;;2.67;1.67;;;23.40;86.60;;;;;;4177044;28;20057;-60
2023/07/15 02:45:36;;;;;;;2.42;1.63;;;23.30;85.40;;;;;;4177035;28;20060;-59
2023/07/15 02:47:39;;;;;;;1.77;1.25;;;23.30;86.20;;;;;;4179243;28;20041;-59
2023/07/15 02:49:39;;;;;;;7.57;1.77;;;23.30;87.20;;;;;;4158143;28;20033;-59
2023/07/15 02:51:40;;;;;;;4.38;1.83;;;23.30;86.10;;;;;;4177079;28;20043;-59
2023/07/15 02:53:43;;;;;;;4.97;1.65;;;23.20;86.70;;;;;;4179342;28;20037;-59
2023/07/15 02:55:43;;;;;;;5.45;1.73;;;23.20;86.60;;;;;;4177254;28;20029;-59
2023/07/15 02:57:44;;;;;;;5.18;1.40;;;23.20;88.10;;;;;;4174957;28;20033;-59
2023/07/15 02:59:45;;;;;;;2.65;1.70;;;23.20;86.80;;;;;;4174203;28;20303;-59
2023/07/15 03:01:46;;;;;;;2.03;1.30;;;23.20;87.40;;;;;;4158438;28;20041;-60
2023/07/15 03:03:47;;;;;;;2.33;1.40;;;23.20;87.10;;;;;;4160556;28;20507;-60
2023/07/15 03:05:48;;;;;;;2.72;1.40;;;23.10;87.10;;;;;;4165492;28;20065;-59
2023/07/15 03:07:49;;;;;;;3.22;1.75;;;23.10;87.50;;;;;;4162005;28;20045;-59
2023/07/15 03:09:50;;;;;;;2.08;1.35;;;23.10;87.30;;;;;;4158634;28;20565;-59
2023/07/15 03:11:51;;;;;;;2.85;1.67;;;23.10;87.30;;;;;;4160104;28;20450;-59
2023/07/15 03:13:51;;;;;;;2.85;1.63;;;23.10;87.90;;;;;;4162835;28;20056;-59
2023/07/15 03:15:52;;;;;;;2.20;1.45;;;23.10;88.90;;;;;;4160754;28;20514;-59
2023/07/15 03:17:53;;;;;;;2.50;1.25;;;23.10;87.60;;;;;;4162406;28;20033;-59
2023/07/15 03:19:54;;;;;;;4.65;1.40;;;23.10;87.20;;;;;;4159075;28;20388;-59
2023/07/15 03:21:54;;;;;;;2.08;1.50;;;23.10;88.20;;;;;;4160833;28;20040;-59
2023/07/15 03:23:55;;;;;;;3.75;1.55;;;23.10;90.10;;;;;;4173400;28;20049;-59
2023/07/15 03:25:55;;;;;;;3.83;1.50;;;23.10;88.20;;;;;;4177339;28;20037;-59
2023/07/15 03:27:56;;;;;;;2.03;1.33;;;23.10;88.90;;;;;;4178707;28;20044;-59
2023/07/15 03:29:56;;;;;;;2.05;1.27;;;23.10;87.60;;;;;;4176257;28;20501;-59
2023/07/15 03:31:57;;;;;;;3.42;1.75;;;23.10;88.90;;;;;;4176755;28;20045;-59
2023/07/15 03:33:57;;;;;;;3.63;1.60;;;23.00;88.80;;;;;;4177476;28;20036;-59
2023/07/15 03:35:59;;;;;;;1.98;1.13;;;23.00;87.40;;;;;;4177694;28;20506;-59
2023/07/15 03:38:00;;;;;;;1.92;1.50;;;23.00;87.30;;;;;;4176162;28;20080;-64
2023/07/15 03:40:04;;;;;;;2.83;1.40;;;23.00;88.00;;;;;;4173620;28;20099;-60
2023/07/15 03:42:04;;;;;;;4.78;1.77;;;23.00;89.00;;;;;;4174377;28;20061;-59
2023/07/15 03:44:05;;;;;;;2.22;1.30;;;23.00;90.80;;;;;;4178387;28;20508;-59
2023/07/15 03:46:05;;;;;;;2.67;1.65;;;23.00;89.70;;;;;;4176929;28;20033;-59
2023/07/15 03:48:06;;;;;;;1.60;1.20;;;22.90;88.40;;;;;;4177839;28;20041;-59
2023/07/15 03:50:11;;;;;;;2.78;1.50;;;22.90;88.80;;;;;;4169380;28;20129;-59
2023/07/15 03:52:11;;;;;;;3.53;1.67;;;22.90;89.30;;;;;;4161687;28;20076;-59
2023/07/15 03:54:12;;;;;;;2.13;1.42;;;22.80;89.60;;;;;;4161991;28;20026;-59
2023/07/15 03:56:13;;;;;;;2.03;1.30;;;22.80;89.90;;;;;;4160418;28;20556;-59
2023/07/15 03:58:13;;;;;;;5.93;1.75;;;22.80;89.90;;;;;;4161539;28;20075;-59
2023/07/15 04:00:17;;;;;;;2.47;1.40;;;22.80;89.90;;;;;;4156576;28;20508;-59
2023/07/15 04:02:17;;;;;;;2.63;1.08;;;22.80;89.30;;;;;;4156695;28;20087;-59
2023/07/15 04:04:18;;;;;;;3.03;1.50;;;22.80;90.50;;;;;;4159681;28;20045;-59
2023/07/15 04:06:18;;;;;;;1.60;1.30;;;22.80;90.00;;;;;;4160894;28;20029;-60
2023/07/15 04:08:19;;;;;;;4.63;1.52;;;22.80;90.00;;;;;;4159242;28;20084;-59
2023/07/15 04:10:20;;;;;;;3.63;1.85;;;22.80;89.80;;;;;;4154235;28;20037;-59
2023/07/15 04:12:21;;;;;;;3.00;1.70;;;22.70;90.00;;;;;;4156010;28;20505;-59
2023/07/15 04:14:22;;;;;;;4.25;1.90;;;22.70;90.30;;;;;;4157844;28;20068;-59
2023/07/15 04:16:22;;;;;;;5.28;1.70;;;22.70;90.50;;;;;;4156784;28;20090;-59
2023/07/15 04:18:23;;;;;;;2.35;1.50;;;22.70;90.10;;;;;;4152469;28;20507;-59
2023/07/15 04:20:24;;;;;;;4.10;1.70;;;22.70;88.90;;;;;;4149873;28;20040;-59
2023/07/15 04:22:24;;;;;;;2.15;1.48;;;22.70;89.40;;;;;;4156898;28;20034;-59
2023/07/15 04:24:25;;;;;;;2.60;1.58;;;22.70;90.10;;;;;;4155884;28;20037;-59
2023/07/15 04:26:26;;;;;;;3.47;1.80;;;22.70;90.80;;;;;;4155618;28;20033;-59
2023/07/15 04:28:27;;;;;;;3.30;1.77;;;22.70;91.10;;;;;;4154063;28;20042;-59
2023/07/15 04:30:28;;;;;;;2.47;1.45;;;22.70;90.80;;;;;;4154768;28;20068;-59
2023/07/15 04:32:28;;;;;;;1.98;1.40;;;22.80;90.50;;;;;;4156153;28;20025;-59
2023/07/15 04:34:29;;;;;;;2.90;1.48;;;22.80;90.50;;;;;;4153027;28;20052;-59
2023/07/15 04:36:30;;;;;;;2.08;1.50;;;22.80;90.50;;;;;;4152956;28;20017;-59
2023/07/15 04:38:31;;;;;;;2.10;1.33;;;22.80;91.10;;;;;;4152849;28;20045;-59
2023/07/15 04:40:31;;;;;;;3.15;1.40;;;22.80;90.50;;;;;;4155774;28;20045;-60
2023/07/15 04:42:32;;;;;;;2.08;1.42;;;22.70;89.80;;;;;;4158945;28;20041;-59
2023/07/15 04:44:33;;;;;;;3.20;1.73;;;22.80;90.50;;;;;;4168194;28;20036;-59
2023/07/15 04:46:33;;;;;;;2.03;1.63;;;22.80;90.60;;;;;;4153928;28;20645;-59
2023/07/15 04:48:34;;;;;;;2.58;1.67;;;22.80;90.70;;;;;;4169586;28;20301;-59
2023/07/15 04:50:35;;;;;;;3.00;1.77;;;22.80;90.60;;;;;;4168149;28;20029;-59
2023/07/15 04:52:35;;;;;;;4.65;1.70;;;22.80;91.30;;;;;;4168342;28;20029;-59
2023/07/15 04:54:36;;;;;;;4.05;1.48;;;22.80;90.70;;;;;;4173043;28;20029;-59
2023/07/15 04:56:36;;;;;;;2.80;1.65;;;22.80;90.90;;;;;;4168238;28;20025;-59
2023/07/15 04:58:38;;;;;;;2.45;1.40;;;22.80;91.40;;;;;;4165106;28;20065;-59
2023/07/15 05:00:39;;;;;;;1.57;1.27;;;22.80;90.70;;;;;;4171868;28;20032;-59
2023/07/15 05:02:40;;;;;;;2.20;1.67;;;22.80;91.10;;;;;;4175869;28;20084;-59
2023/07/15 05:04:40;;;;;;;1.88;1.50;;;22.90;90.80;;;;;;4167713;28;20482;-59
2023/07/15 05:06:41;;;;;;;2.78;1.60;;;22.90;90.70;;;;;;4170135;28;20411;-59
2023/07/15 05:08:42;;;;;;;2.15;1.55;;;23.00;91.10;;;;;;4168704;28;20373;-59
2023/07/15 05:10:43;;;;;;;5.30;1.75;;;23.00;91.00;;;;;;4167477;28;20072;-59
2023/07/15 05:12:44;;;;;;;3.35;1.65;;;23.00;90.80;;;;;;4168827;28;20029;-59
2023/07/15 05:14:44;;;;;;;2.42;1.50;;;23.00;91.30;;;;;;4169957;28;20040;-59
2023/07/15 05:16:45;;;;;;;3.97;1.88;;;23.10;91.40;;;;;;4175378;28;20028;-59
2023/07/15 05:18:46;;;;;;;2.17;1.55;;;23.10;90.90;;;;;;4174817;28;20035;-59
2023/07/15 05:20:46;;;;;;;2.40;1.75;;;23.10;91.40;;;;;;4174452;28;20120;-59
2023/07/15 05:22:47;;;;;;;3.25;1.50;;;23.10;91.10;;;;;;4165139;28;20037;-59
2023/07/15 05:24:49;;;;;;;4.28;1.65;;;23.20;91.70;;;;;;4165475;28;20044;-61
2023/07/15 05:26:49;;;;;;;5.43;1.92;;;23.10;90.90;;;;;;4151652;28;20037;-60
2023/07/15 05:28:50;;;;;;;4.97;1.67;;;23.20;91.10;;;;;;4162596;28;20123;-59
2023/07/15 05:30:51;;;;;;;3.25;1.50;;;23.20;91.30;;;;;;4168359;28;20021;-59
2023/07/15 05:32:51;;;;;;;2.92;1.52;;;23.20;91.10;;;;;;4173453;28;20793;-59
2023/07/15 05:34:52;;;;;;;3.53;1.88;;;23.30;90.80;;;;;;4173171;28;20496;-60
2023/07/15 05:36:53;;;;;;;2.67;1.30;;;23.30;90.90;;;;;;4172243;28;20090;-59
2023/07/15 05:38:53;;;;;;;2.65;1.48;;;23.40;91.30;;;;;;4173406;28;20032;-59
2023/07/15 05:40:55;;;;;;;2.50;1.73;;;23.40;91.10;;;;;;4174866;28;20021;-60
2023/07/15 05:42:55;;;;;;;2.13;1.48;;;23.40;91.30;;;;;;4165126;28;20049;-59
2023/07/15 05:44:56;;;;;;;6.85;1.73;;;23.50;91.20;;;;;;4175134;28;20113;-59
2023/07/15 05:46:57;;;;;;;1.80;1.10;;;23.50;91.60;;;;;;4161611;28;20033;-59
2023/07/15 05:48:58;;;;;;;3.50;1.55;;;23.50;91.70;;;;;;4161692;28;20075;-59
2023/07/15 05:50:59;;;;;;;2.42;1.50;;;23.60;90.30;;;;;;4165427;28;20519;-59
2023/07/15 05:52:59;;;;;;;6.78;1.60;;;23.60;90.30;;;;;;4158644;28;20038;-59
2023/07/15 05:55:00;;;;;;;2.55;1.55;;;23.60;90.40;;;;;;4164882;28;20071;-59
2023/07/15 05:57:01;;;;;;;3.92;1.58;;;23.70;90.40;;;;;;4156305;28;20068;-59
2023/07/15 05:59:01;;;;;;;1.90;1.33;;;23.80;90.10;;;;;;4172937;28;20033;-59
2023/07/15 06:01:02;;;;;;;2.67;1.50;;;23.80;90.30;;;;;;4169823;28;20044;-59
2023/07/15 06:03:03;;;;;;;3.78;1.52;;;24.00;90.30;;;;;;4180147;28;20037;-64
2023/07/15 06:05:04;;;;;;;3.45;1.90;;;24.30;89.40;;;;;;4178991;28;20040;-63
2023/07/15 06:07:04;;;;;;;3.88;2.00;;;24.70;88.60;;;;;;4178268;28;20037;-60
2023/07/15 06:09:06;;;;;;;5.90;1.67;;;25.10;87.00;;;;;;4176181;28;20076;-60
2023/07/15 06:11:06;;;;;;;2.63;1.80;;;25.50;86.80;;;;;;4174697;28;20159;-60
2023/07/15 06:13:07;;;;;;;7.40;1.60;;;25.80;85.10;;;;;;4179319;28;20041;-60
2023/07/15 06:15:08;;;;;;;3.15;1.48;;;26.20;84.70;;;;;;4178548;28;20036;-61
2023/07/15 06:17:09;;;;;;;3.60;1.50;;;26.40;83.40;;;;;;4179700;28;20041;-60
2023/07/15 06:19:09;;;;;;;2.75;1.50;;;26.80;83.40;;;;;;4177079;28;20029;-60
2023/07/15 06:21:10;;;;;;;3.58;2.00;;;27.10;82.40;;;;;;4176653;28;20051;-59
2023/07/15 06:23:10;;;;;;;2.15;1.40;;;27.40;81.50;;;;;;4179738;28;20037;-60
2023/07/15 06:25:12;;;;;;;3.90;1.33;;;27.70;81.80;;;;;;4177370;28;20036;-61
2023/07/15 06:27:13;;;;;;;5.07;1.45;;;28.00;80.40;;;;;;4180512;28;20116;-61
2023/07/15 06:29:14;;;;;;;5.30;1.73;;;28.30;79.60;;;;;;4176288;28;20061;-60
2023/07/15 06:31:14;;;;;;;2.58;1.63;;;28.50;80.10;;;;;;4178927;28;20392;-60
2023/07/15 06:33:15;;;;;;;3.97;1.65;;;28.80;79.40;;;;;;4189931;28;20039;-61
2023/07/15 06:35:16;;;;;;;3.08;1.50;;;29.00;79.40;;;;;;4172920;28;20046;-60
2023/07/15 06:37:17;;;;;;;4.43;1.40;;;29.20;78.90;;;;;;4167028;28;20029;-61
2023/07/15 06:39:17;;;;;;;2.40;1.48;;;29.30;77.90;;;;;;4163500;28;20042;-61
2023/07/15 06:41:18;;;;;;;2.78;1.42;;;29.20;76.80;;;;;;4159121;28;20030;-60
2023/07/15 06:43:18;;;;;;;1.63;1.30;;;29.10;76.80;;;;;;4179267;28;20047;-61
2023/07/15 06:45:22;;;;;;;1.98;1.40;;;29.10;79.70;;;;;;4182286;28;20028;-61
2023/07/15 06:47:24;;;;;;;1.75;1.50;;;29.10;78.20;;;;;;4178791;28;20091;-60
2023/07/15 06:49:25;;;;;;;4.03;1.55;;;29.10;77.80;;;;;;4180796;28;20051;-61
2023/07/15 06:51:25;;;;;;;5.18;1.45;;;29.20;79.30;;;;;;4178729;28;20479;-61
2023/07/15 06:53:26;;;;;;;3.55;1.52;;;29.00;79.30;;;;;;4176219;28;20033;-61
2023/07/15 06:55:26;;;;;;;5.82;1.35;;;28.80;77.30;;;;;;4184541;28;20487;-60
2023/07/15 06:57:28;;;;;;;2.83;1.30;;;28.70;78.90;;;;;;4183514;28;20021;-61
2023/07/15 06:59:28;;;;;;;4.50;1.60;;;28.50;79.60;;;;;;4156908;28;20038;-61
2023/07/15 07:01:29;;;;;;;4.03;1.33;;;28.50;79.40;;;;;;4171050;28;20033;-60
2023/07/15 07:03:31;;;;;;;3.30;1.55;;;28.30;79.60;;;;;;4177548;28;20112;-60
2023/07/15 07:05:31;;;;;;;2.90;1.60;;;28.10;78.80;;;;;;4176612;28;20111;-60
2023/07/15 07:07:32;;;;;;;2.60;1.48;;;27.90;80.40;;;;;;4177244;28;20069;-60
2023/07/15 07:09:32;;;;;;;2.15;1.38;;;27.80;79.70;;;;;;4177796;28;20041;-60
2023/07/15 07:11:33;;;;;;;4.78;1.10;;;27.60;80.10;;;;;;4181235;28;20029;-60
2023/07/15 07:13:33;;;;;;;1.63;1.10;;;27.40;80.40;;;;;;4180959;28;20029;-60
2023/07/15 07:15:34;;;;;;;2.47;1.27;;;27.40;81.40;;;;;;4175823;28;20025;-62
2023/07/15 07:17:34;;;;;;;11.05;1.30;;;27.40;81.30;;;;;;4179114;28;20428;-61
2023/07/15 07:19:35;;;;;;;2.13;1.55;;;27.30;81.50;;;;;;4177568;28;20037;-60
2023/07/15 07:21:35;;;;;;;2.20;1.50;;;27.20;80.90;;;;;;4185653;28;20053;-60
2023/07/15 07:23:36;;;;;;;2.10;1.30;;;27.10;82.50;;;;;;4178390;28;20037;-61
2023/07/15 07:25:40;;;;;;;5.75;1.42;;;27.00;81.80;;;;;;4174932;28;20048;-60
2023/07/15 07:27:41;;;;;;;1.48;1.23;;;27.00;81.50;;;;;;4183067;28;20064;-60
2023/07/15 07:29:41;;;;;;;2.42;1.40;;;26.90;83.20;;;;;;4174378;28;20048;-60
2023/07/15 07:31:42;;;;;;;1.75;1.10;;;26.80;82.50;;;;;;4156409;28;20029;-62
2023/07/15 07:33:43;;;;;;;4.40;1.60;;;26.70;83.70;;;;;;4166532;28;20040;-62
2023/07/15 07:35:46;;;;;;;1.83;1.20;;;26.70;82.80;;;;;;4176207;28;20033;-62
2023/07/15 07:37:49;;;;;;;3.33;1.27;;;26.70;84.20;;;;;;4171565;28;20038;-62
2023/07/15 07:39:49;;;;;;;3.00;1.38;;;26.60;84.60;;;;;;4166913;28;20045;-62
2023/07/15 07:41:50;;;;;;;2.25;1.42;;;26.50;84.50;;;;;;4168864;28;20144;-62
2023/07/15 07:43:51;;;;;;;4.05;1.73;;;26.50;86.30;;;;;;4168059;28;20047;-65
2023/07/15 07:45:51;;;;;;;3.20;1.50;;;26.40;84.30;;;;;;4173438;28;20035;-62
2023/07/15 07:47:52;;;;;;;3.33;1.30;;;26.40;85.10;;;;;;4157469;28;20038;-62
2023/07/15 07:49:52;;;;;;;2.72;1.52;;;26.30;85.00;;;;;;4170492;28;20029;-63
2023/07/15 07:51:53;;;;;;;2.72;1.23;;;26.30;85.30;;;;;;4162710;28;20076;-62
2023/07/15 07:53:54;;;;;;;5.45;1.27;;;26.40;86.70;;;;;;4169474;28;20162;-62
2023/07/15 07:55:55;;;;;;;1.60;1.20;;;26.30;87.10;;;;;;4152532;28;20052;-62
2023/07/15 07:57:55;;;;;;;3.40;1.63;;;26.30;88.20;;;;;;4151016;28;20053;-62
2023/07/15 07:59:56;;;;;;;1.42;1.02;;;26.30;88.60;;;;;;4151906;28;20049;-62
2023/07/15 08:01:56;;;;;;;2.67;1.42;;;26.30;87.90;;;;;;4152633;28;20037;-62
2023/07/15 08:03:57;;;;;;;3.80;1.67;;;26.30;87.80;;;;;;4153721;28;20041;-61
2023/07/15 08:05:59;;;;;;;1.58;1.13;;;26.30;88.70;;;;;;4154187;28;20129;-62
2023/07/15 08:08:00;;;;;;;2.20;1.10;;;26.20;88.30;;;;;;4158093;28;20029;-62
2023/07/15 08:10:00;;;;;;;1.08;0.98;;;26.30;89.50;;;;;;4147024;28;20500;-62
2023/07/15 08:12:01;;;;;;;4.40;1.10;;;26.20;89.30;;;;;;4107748;28;20114;-62
2023/07/15 08:14:02;;;;;;;1.90;1.08;;;26.20;90.10;;;;;;4059899;28;21275;-62
2023/07/15 08:16:03;;;;;;;2.85;1.05;;;26.20;90.00;;;;;;4117879;28;20037;-62
2023/07/15 08:18:04;;;;;;;1.80;1.00;;;26.20;90.50;;;;;;4097818;28;20030;-62
2023/07/15 08:20:07;;;;;;;4.70;1.50;;;26.00;89.70;;;;;;4092552;28;20539;-63
2023/07/15 08:22:09;;;;;;;1.98;0.80;;;26.10;90.40;;;;;;4127097;28;20103;-62
2023/07/15 08:24:09;;;;;;;1.73;1.00;;;26.10;90.80;;;;;;4155958;28;20069;-62
2023/07/15 08:26:10;;;;;;;1.33;1.02;;;26.20;91.10;;;;;;4152324;28;20069;-62
2023/07/15 08:28:10;;;;;;;2.30;1.40;;;26.20;90.50;;;;;;4157668;28;20099;-61
2023/07/15 08:30:11;;;;;;;1.55;1.25;;;26.20;90.60;;;;;;4152935;28;20045;-63
2023/07/15 08:32:13;;;;;;;4.47;1.65;;;26.30;91.20;;;;;;4152517;28;20065;-62
2023/07/15 08:34:13;;;;;;;1.63;1.10;;;26.30;90.50;;;;;;4153016;28;20034;-62
2023/07/15 08:36:14;;;;;;;1.77;1.10;;;26.30;90.80;;;;;;4152668;28;20038;-62
2023/07/15 08:38:15;;;;;;;3.03;1.33;;;26.30;90.70;;;;;;4157030;28;20512;-62
2023/07/15 08:40:18;;;;;;;2.70;1.10;;;26.30;90.70;;;;;;4153889;28;20036;-62
2023/07/15 08:42:19;;;;;;;1.60;1.20;;;26.30;90.40;;;;;;4155755;28;20468;-62
2023/07/15 08:44:20;;;;;;;2.53;1.23;;;26.30;90.00;;;;;;4170032;28;20112;-62
2023/07/15 08:46:28;;;;;;;5.25;1.35;;;26.30;90.00;;;;;;4142153;28;20088;-62
2023/07/15 08:48:28;;;;;;;1.40;1.10;;;26.20;89.80;;;;;;4137707;28;20040;-63
2023/07/15 08:50:33;;;;;;;2.20;1.23;;;26.20;89.40;;;;;;4114566;28;20040;-62
2023/07/15 08:52:36;;;;;;;2.38;1.40;;;26.30;90.30;;;;;;4165133;28;20480;-62
2023/07/15 08:54:38;;;;;;;6.50;1.48;;;26.30;90.10;;;;;;4168133;28;20029;-62
2023/07/15 08:56:39;;;;;;;1.50;1.20;;;26.30;90.10;;;;;;4169160;28;20129;-62
2023/07/15 08:58:40;;;;;;;2.00;1.20;;;26.30;90.40;;;;;;4169793;28;20127;-62
2023/07/15 09:00:41;;;;;;;1.85;1.10;;;26.30;90.20;;;;;;4168131;28;20481;-62
2023/07/15 09:02:42;;;;;;;3.08;1.58;;;26.30;90.60;;;;;;4170023;28;20147;-62
2023/07/15 09:04:42;;;;;;;3.03;1.40;;;26.30;90.10;;;;;;4174273;28;20037;-62
2023/07/15 09:06:43;;;;;;;1.73;1.10;;;26.30;91.00;;;;;;4168175;28;20504;-62
2023/07/15 09:08:49;;;;;;;2.05;1.15;;;26.40;90.50;;;;;;4149510;28;20036;-62
2023/07/15 09:10:54;;;;;;;4.50;1.13;;;26.40;90.20;;;;;;4164334;28;20478;-62
2023/07/15 09:12:56;;;;;;;2.20;1.38;;;26.40;90.40;;;;;;4173276;28;20029;-62
2023/07/15 09:14:57;;;;;;;3.10;1.25;;;26.50;90.60;;;;;;4172798;28;20037;-62
2023/07/15 09:16:59;;;;;;;1.85;0.95;;;26.50;90.70;;;;;;4171950;28;20187;-62
2023/07/15 09:19:00;;;;;;;4.25;2.00;;;26.50;90.10;;;;;;4156887;28;20537;-66
2023/07/15 09:21:08;;;;;;;2.15;1.23;;;26.50;89.50;;;;;;4161714;28;20040;-62
2023/07/15 09:23:09;;;;;;;2.88;1.70;;;26.60;89.40;;;;;;4155042;28;20449;-62
2023/07/15 09:25:10;;;;;;;2.50;1.45;;;26.60;89.80;;;;;;4160832;28;20029;-63
2023/07/15 09:27:11;;;;;;;3.72;2.00;;;26.50;89.30;;;;;;4154518;28;20064;-62
2023/07/15 09:29:12;;;;;;;1.75;1.42;;;26.50;88.70;;;;;;4156759;28;20033;-62
2023/07/15 09:31:25;;;;;;;7.53;1.90;;;26.50;89.20;;;;;;4162915;28;20037;-62
2023/07/15 09:33:31;;;;;;;3.55;1.52;;;26.50;89.60;;;;;;4153243;28;20036;-62
2023/07/15 09:35:36;;;;;;;5.00;1.40;;;26.50;90.00;;;;;;4177826;28;20082;-62
2023/07/15 09:37:37;;;;;;;4.25;1.38;;;26.60;90.30;;;;;;4171545;28;20091;-62
2023/07/15 09:39:38;;;;;;;3.33;1.08;;;26.60;90.60;;;;;;4165909;28;20056;-61
2023/07/15 09:41:39;;;;;;;1.83;1.10;;;26.50;91.40;;;;;;4171837;28;20033;-61
2023/07/15 09:43:50;;;;;;;2.40;0.87;;;26.40;92.10;;;;;;4176358;28;20528;-62
2023/07/15 09:45:52;;;;;;;2.33;0.80;;;26.40;92.50;;;;;;4176661;28;20025;-62
2023/07/15 09:47:53;;;;;;;4.13;0.83;;;26.40;93.10;;;;;;4178900;28;20072;-68
2023/07/15 09:49:53;;;;;;;2.40;0.80;;;26.40;93.10;;;;;;4178648;28;20029;-63
2023/07/15 09:51:54;;;;;;;7.53;1.48;;;26.40;93.40;;;;;;4174676;28;20112;-62
2023/07/15 09:53:56;;;;;;;2.60;1.10;;;26.30;93.20;;;;;;4179744;28;20715;-62
2023/07/15 09:55:57;;;;;;;4.20;1.30;;;26.30;93.50;;;;;;4183965;28;20033;-62
2023/07/15 09:58:12;;;;;;;3.78;1.20;;;26.20;93.60;;;;;;4184349;28;20484;-62
2023/07/15 10:00:14;;;;;;;8.25;1.80;;;26.10;93.80;;;;;;4174367;28;20644;-62
2023/07/15 10:02:33;;;;;;;5.75;1.30;;;26.10;94.00;;;;;;4176537;28;20031;-61
2023/07/15 10:04:43;;;;;;;4.70;1.23;;;26.00;94.40;;;;;;4167882;28;20418;-62
2023/07/15 10:06:44;;;;;;;4.38;1.15;;;25.90;94.90;;;;;;4175226;28;20044;-62
2023/07/15 10:08:46;;;;;;;6.70;1.13;;;25.90;95.00;;;;;;4183683;28;20032;-62
2023/07/15 10:10:48;;;;;;;6.82;1.50;;;25.90;95.20;;;;;;4178256;28;20021;-62
2023/07/15 10:12:49;;;;;;;5.43;1.33;;;25.80;95.40;;;;;;4183346;28;20025;-62
2023/07/15 10:14:51;;;;;;;3.10;1.25;;;25.70;95.70;;;;;;4183520;28;20045;-61
2023/07/15 10:17:13;;;;;;;4.88;1.30;;;25.70;95.90;;;;;;4187183;28;20364;-62
2023/07/15 10:19:42;;;;;;;1.77;1.10;;;25.60;96.30;;;;;;4162795;28;20124;-62
2023/07/15 10:21:48;;;;;;;2.20;1.10;;;25.70;96.60;;;;;;4178428;28;20029;-62
2023/07/15 10:23:49;;;;;;;3.95;1.58;;;25.70;96.70;;;;;;4169457;28;20056;-62
2023/07/15 10:26:00;;;;;;;3.55;0.90;;;25.70;96.90;;;;;;4161816;28;20025;-62
2023/07/15 10:28:12;;;;;;;3.20;1.02;;;25.70;97.10;;;;;;4169059;28;20029;-63
2023/07/15 10:30:26;;;;;;;5.38;1.15;;;25.70;97.10;;;;;;4172488;28;20041;-62
2023/07/15 10:32:27;;;;;;;1.77;1.15;;;25.60;97.00;;;;;;4171675;28;20522;-62
2023/07/15 10:34:55;;;;;;;2.38;0.90;;;25.60;97.30;;;;;;4173649;28;20025;-62